createdAt,value
2022-11-26T00:02:18.978Z,4.20
2022-11-26T00:04:47.108Z,4.10
2022-11-26T00:07:16.894Z,4.10
2022-11-26T00:09:45.052Z,4.20
2022-11-26T00:12:18.320Z,4.10
2022-11-26T00:14:47.224Z,4.10
2022-11-26T00:17:17.782Z,4.10
2022-11-26T00:19:46.472Z,4.10
2022-11-26T00:22:24.394Z,4.10
2022-11-26T00:24:53.131Z,4.10
2022-11-26T00:27:21.479Z,4.10
2022-11-26T00:29:49.467Z,4.10
2022-11-26T00:32:21.472Z,4.10
2022-11-26T00:34:49.570Z,4.10
2022-11-26T00:37:21.052Z,4.10
2022-11-26T00:39:49.427Z,4.00
2022-11-26T00:42:18.007Z,4.00
2022-11-26T00:44:46.035Z,4.00
2022-11-26T00:47:14.031Z,4.00
2022-11-26T00:49:43.380Z,4.00
2022-11-26T00:52:25.812Z,4.00
2022-11-26T00:54:54.016Z,4.00
2022-11-26T00:57:22.038Z,4.00
2022-11-26T00:59:50.010Z,4.00
2022-11-26T01:02:18.044Z,4.00
2022-11-26T01:04:47.399Z,4.00
2022-11-26T01:07:15.563Z,4.00
2022-11-26T01:09:47.515Z,3.90
2022-11-26T01:12:16.465Z,3.90
2022-11-26T01:14:44.458Z,3.90
2022-11-26T01:17:13.131Z,3.90
2022-11-26T01:19:41.152Z,3.90
2022-11-26T01:22:20.913Z,3.90
2022-11-26T01:24:49.409Z,3.90
2022-11-26T01:27:18.521Z,3.90
2022-11-26T01:29:46.523Z,3.90
2022-11-26T01:32:14.525Z,3.90
2022-11-26T01:34:42.522Z,3.90
2022-11-26T01:37:15.516Z,3.90
2022-11-26T01:39:43.518Z,3.90
2022-11-26T01:42:25.784Z,3.90
2022-11-26T01:44:54.032Z,3.90
2022-11-26T01:47:24.679Z,3.90
2022-11-26T01:50:29.951Z,3.90
2022-11-26T01:53:02.235Z,3.90
2022-11-26T01:55:35.761Z,3.90
2022-11-26T01:58:05.087Z,3.90
2022-11-26T02:00:33.084Z,3.90
2022-11-26T02:03:01.674Z,3.90
2022-11-26T02:05:32.591Z,3.90
2022-11-26T02:08:03.257Z,3.90
2022-11-26T02:10:31.299Z,3.90
2022-11-26T02:12:59.392Z,3.90
2022-11-26T02:15:32.104Z,3.90
2022-11-26T02:18:04.529Z,3.90
2022-11-26T02:20:46.549Z,3.90
2022-11-26T02:23:55.235Z,4.00
2022-11-26T02:26:59.041Z,4.00
2022-11-26T02:29:45.551Z,4.00
2022-11-26T02:32:18.852Z,4.00
2022-11-26T02:34:55.786Z,3.90
2022-11-26T02:37:29.593Z,3.90
2022-11-26T02:39:58.148Z,3.90
2022-11-26T02:42:29.955Z,3.90
2022-11-26T02:45:03.837Z,3.90
2022-11-26T02:47:34.878Z,3.90
2022-11-26T02:50:07.480Z,3.90
2022-11-26T02:52:36.333Z,3.90
2022-11-26T02:55:09.080Z,3.90
2022-11-26T02:57:43.407Z,3.90
2022-11-26T03:00:14.316Z,3.90
2022-11-26T03:02:47.994Z,3.90
2022-11-26T03:05:17.868Z,3.90
2022-11-26T03:07:47.536Z,3.90
2022-11-26T03:10:15.999Z,3.90
2022-11-26T03:12:44.019Z,3.90
2022-11-26T03:15:13.600Z,3.90
2022-11-26T03:17:41.575Z,3.90
2022-11-26T03:20:10.070Z,3.90
2022-11-26T03:22:40.927Z,3.90
2022-11-26T03:25:10.115Z,3.90
2022-11-26T03:27:38.199Z,3.90
2022-11-26T03:30:07.600Z,3.90
2022-11-26T03:32:37.252Z,3.90
2022-11-26T03:35:06.424Z,4.00
2022-11-26T03:37:34.430Z,3.90
2022-11-26T03:40:02.623Z,4.00
2022-11-26T03:42:30.595Z,4.00
2022-11-26T03:44:58.591Z,4.00
2022-11-26T03:47:27.276Z,4.00
2022-11-26T03:49:56.654Z,4.00
2022-11-26T03:52:24.623Z,4.00
2022-11-26T03:54:52.611Z,4.00
2022-11-26T03:57:22.088Z,4.00
2022-11-26T03:59:50.092Z,4.10
2022-11-26T04:02:18.086Z,4.00
2022-11-26T04:04:46.080Z,4.10
2022-11-26T04:07:15.446Z,4.10
2022-11-26T04:09:43.435Z,4.10
2022-11-26T04:12:11.452Z,4.10
2022-11-26T04:14:39.673Z,4.10
2022-11-26T04:17:07.783Z,4.10
2022-11-26T04:19:35.744Z,4.10
2022-11-26T04:22:03.753Z,4.10
2022-11-26T04:24:33.126Z,4.10
2022-11-26T04:27:01.112Z,4.10
2022-11-26T04:29:29.070Z,4.10
2022-11-26T04:31:57.181Z,4.10
2022-11-26T04:34:25.196Z,4.10
2022-11-26T04:36:53.227Z,4.00
2022-11-26T04:39:21.223Z,4.00
2022-11-26T04:41:50.713Z,4.00
2022-11-26T04:44:18.712Z,4.00
2022-11-26T04:46:46.700Z,4.00
2022-11-26T04:49:15.108Z,4.00
2022-11-26T04:51:43.177Z,3.90
2022-11-26T04:54:13.145Z,3.90
2022-11-26T04:56:41.762Z,3.90
2022-11-26T04:59:11.178Z,3.90
2022-11-26T05:01:39.265Z,3.90
2022-11-26T05:04:07.342Z,3.80
2022-11-26T05:06:35.607Z,3.90
2022-11-26T05:09:03.620Z,3.90
2022-11-26T05:11:31.622Z,3.90
2022-11-26T05:14:00.311Z,3.90
2022-11-26T05:16:29.757Z,3.80
2022-11-26T05:18:57.763Z,3.80
2022-11-26T05:21:25.719Z,3.80
2022-11-26T05:23:53.711Z,3.80
2022-11-26T05:26:21.748Z,3.80
2022-11-26T05:28:49.831Z,3.80
2022-11-26T05:31:19.374Z,3.80
2022-11-26T05:33:48.768Z,3.70
2022-11-26T05:36:16.763Z,3.80
2022-11-26T05:38:44.786Z,3.70
2022-11-26T05:41:12.816Z,3.70
2022-11-26T05:43:40.898Z,3.70
2022-11-26T05:46:09.901Z,3.70
2022-11-26T05:48:37.932Z,3.70
2022-11-26T05:51:07.608Z,3.70
2022-11-26T05:53:35.611Z,3.70
2022-11-26T05:56:03.705Z,3.70
2022-11-26T05:58:31.731Z,3.70
2022-11-26T06:00:59.709Z,3.60
2022-11-26T06:03:27.959Z,3.60
2022-11-26T06:05:56.047Z,3.60
2022-11-26T06:08:25.389Z,3.60
2022-11-26T06:10:53.381Z,3.60
2022-11-26T06:13:21.415Z,3.60
2022-11-26T06:15:49.463Z,3.60
2022-11-26T06:18:17.468Z,3.60
2022-11-26T06:20:45.921Z,3.60
2022-11-26T06:23:13.920Z,3.60
2022-11-26T06:25:43.658Z,3.60
2022-11-26T06:28:11.847Z,3.60
2022-11-26T06:30:39.902Z,3.60
2022-11-26T06:33:07.938Z,3.60
2022-11-26T06:35:35.992Z,3.60
2022-11-26T06:38:03.981Z,3.60
2022-11-26T06:40:31.950Z,3.60
2022-11-26T06:43:01.349Z,3.60
2022-11-26T06:45:29.444Z,3.60
2022-11-26T06:47:57.448Z,3.60
2022-11-26T06:50:25.462Z,3.70
2022-11-26T06:52:54.416Z,3.70
2022-11-26T06:55:22.850Z,3.70
2022-11-26T06:57:52.094Z,3.70
2022-11-26T07:00:22.552Z,3.80
2022-11-26T07:02:50.608Z,3.80
2022-11-26T07:05:19.041Z,3.80
2022-11-26T07:07:49.405Z,3.80
2022-11-26T07:10:17.799Z,3.80
2022-11-26T07:12:45.858Z,3.80
2022-11-26T07:15:13.866Z,3.80
2022-11-26T07:17:44.628Z,3.80
2022-11-26T07:20:13.883Z,3.80
2022-11-26T07:22:41.946Z,3.80
2022-11-26T07:25:12.707Z,3.90
2022-11-26T07:27:41.096Z,3.80
2022-11-26T07:30:11.529Z,3.90
2022-11-26T07:32:39.616Z,3.90
2022-11-26T07:35:11.979Z,4.00
2022-11-26T07:37:39.988Z,4.00
2022-11-26T07:40:09.157Z,4.10
2022-11-26T07:42:37.279Z,4.10
2022-11-26T07:45:08.227Z,4.20
2022-11-26T07:47:36.290Z,4.20
2022-11-26T07:50:04.908Z,4.20
2022-11-26T07:52:34.283Z,4.30
2022-11-26T07:55:02.476Z,4.40
2022-11-26T07:57:30.447Z,4.40
2022-11-26T07:59:58.504Z,4.40
2022-11-26T08:02:26.547Z,4.40
2022-11-26T08:04:54.568Z,4.40
2022-11-26T08:07:27.705Z,4.40
2022-11-26T08:09:59.012Z,4.50
2022-11-26T08:12:27.422Z,4.50
2022-11-26T08:14:55.452Z,4.50
2022-11-26T08:17:23.451Z,4.50
2022-11-26T08:19:51.478Z,4.50
2022-11-26T08:22:19.526Z,4.60
2022-11-26T08:24:47.528Z,4.60
2022-11-26T08:27:17.232Z,4.60
2022-11-26T08:29:45.873Z,4.60
2022-11-26T08:32:13.891Z,4.60
2022-11-26T08:34:42.063Z,4.70
2022-11-26T08:37:10.185Z,4.70
2022-11-26T08:39:39.286Z,4.70
2022-11-26T08:42:07.357Z,4.70
2022-11-26T08:44:37.132Z,4.70
2022-11-26T08:47:05.353Z,4.70
2022-11-26T08:49:33.348Z,4.70
2022-11-26T08:52:01.395Z,4.80
2022-11-26T08:54:29.519Z,4.80
2022-11-26T08:56:57.498Z,4.80
2022-11-26T08:59:25.532Z,4.80
2022-11-26T09:01:55.035Z,4.90
2022-11-26T09:04:23.115Z,5.00
2022-11-26T09:06:53.922Z,5.00
2022-11-26T09:09:21.951Z,5.00
2022-11-26T09:11:52.109Z,5.00
2022-11-26T09:14:22.899Z,5.10
2022-11-26T09:16:50.978Z,5.10
2022-11-26T09:19:20.687Z,5.10
2022-11-26T09:21:52.037Z,5.10
2022-11-26T09:24:21.237Z,5.10
2022-11-26T09:26:50.726Z,5.20
2022-11-26T09:29:21.070Z,5.20
2022-11-26T09:32:21.274Z,5.30
2022-11-26T09:34:39.660Z,5.30
2022-11-26T09:37:08.394Z,5.30
2022-11-26T09:39:36.431Z,5.40
2022-11-26T09:42:07.939Z,5.50
2022-11-26T09:45:00.029Z,5.40
2022-11-26T09:47:32.248Z,5.50
2022-11-26T09:50:19.831Z,5.50
2022-11-26T09:52:54.174Z,5.50
2022-11-26T09:55:25.225Z,5.50
2022-11-26T09:58:00.344Z,5.50
2022-11-26T10:00:32.325Z,5.60
2022-11-26T10:03:01.804Z,5.60
2022-11-26T10:05:43.727Z,5.70
2022-11-26T10:08:26.610Z,5.70
2022-11-26T10:11:03.859Z,5.70
2022-11-26T10:13:42.852Z,5.70
2022-11-26T10:16:20.494Z,5.80
2022-11-26T10:18:59.430Z,5.80
2022-11-26T10:21:57.653Z,5.80
2022-11-26T10:24:28.776Z,5.80
2022-11-26T10:26:58.663Z,5.80
2022-11-26T10:29:29.087Z,5.80
2022-11-26T10:32:02.353Z,5.80
2022-11-26T10:34:39.857Z,5.80
2022-11-26T10:37:09.611Z,5.80
2022-11-26T10:39:37.838Z,5.80
2022-11-26T10:42:14.484Z,5.80
2022-11-26T10:44:43.096Z,5.80
2022-11-26T10:47:23.707Z,5.80
2022-11-26T10:49:53.304Z,5.80
2022-11-26T10:52:26.399Z,5.80
2022-11-26T10:55:21.993Z,5.80
2022-11-26T10:57:53.668Z,5.80
2022-11-26T11:00:40.109Z,5.80
2022-11-26T11:03:17.175Z,5.80
2022-11-26T11:05:45.866Z,5.80
2022-11-26T11:08:17.497Z,5.80
2022-11-26T11:10:56.392Z,5.80
2022-11-26T11:13:25.926Z,5.80
2022-11-26T11:16:03.232Z,5.80
2022-11-26T11:18:35.323Z,5.80
2022-11-26T11:21:05.384Z,5.80
2022-11-26T11:24:07.022Z,5.80
2022-11-26T11:26:30.880Z,5.80
2022-11-26T11:28:58.964Z,5.80
2022-11-26T11:31:28.908Z,5.80
2022-11-26T11:34:14.396Z,5.80
2022-11-26T11:36:42.399Z,5.90
2022-11-26T11:39:29.040Z,5.90
2022-11-26T11:41:58.899Z,5.90
2022-11-26T11:44:32.376Z,5.90
2022-11-26T11:47:20.540Z,5.90
2022-11-26T11:50:12.782Z,5.90
2022-11-26T11:52:48.891Z,5.90
2022-11-26T11:55:27.991Z,6.00
2022-11-26T11:58:16.588Z,6.00
2022-11-26T12:00:53.481Z,6.00
2022-11-26T12:03:45.013Z,6.00
2022-11-26T12:06:26.401Z,6.00
2022-11-26T12:09:03.740Z,6.00
2022-11-26T12:11:46.310Z,6.10
2022-11-26T12:14:21.389Z,6.10
2022-11-26T12:16:58.355Z,6.10
2022-11-26T12:19:35.398Z,6.10
2022-11-26T12:22:12.112Z,6.10
2022-11-26T12:24:46.354Z,6.10
2022-11-26T12:27:28.856Z,6.10
2022-11-26T12:30:01.084Z,6.10
2022-11-26T12:32:35.860Z,6.10
2022-11-26T12:35:08.402Z,6.10
2022-11-26T12:37:41.026Z,6.10
2022-11-26T12:40:22.778Z,6.10
2022-11-26T12:42:58.319Z,6.10
2022-11-26T12:45:39.850Z,6.10
2022-11-26T12:48:19.722Z,6.10
2022-11-26T12:50:53.929Z,6.10
2022-11-26T12:53:33.434Z,6.10
2022-11-26T12:56:10.146Z,6.10
2022-11-26T12:58:47.337Z,6.10
2022-11-26T13:01:15.742Z,6.10
2022-11-26T13:03:43.979Z,6.10
2022-11-26T13:06:27.763Z,6.10
2022-11-26T13:09:01.972Z,6.20
2022-11-26T13:11:40.172Z,6.20
2022-11-26T13:14:18.712Z,6.20
2022-11-26T13:16:54.941Z,6.10
2022-11-26T13:19:31.759Z,6.20
2022-11-26T13:22:22.995Z,6.10
2022-11-26T13:25:04.271Z,6.10
2022-11-26T13:27:48.168Z,6.10
2022-11-26T13:30:22.307Z,6.20
2022-11-26T13:33:21.372Z,6.10
2022-11-26T13:36:25.073Z,6.20
2022-11-26T13:39:05.843Z,6.20
2022-11-26T13:42:13.544Z,6.10
2022-11-26T13:45:13.969Z,6.10
2022-11-26T13:47:47.438Z,6.20
2022-11-26T13:50:19.779Z,6.10
2022-11-26T13:52:53.928Z,6.20
2022-11-26T13:55:26.769Z,6.10
2022-11-26T13:57:57.404Z,6.20
2022-11-26T14:00:27.539Z,6.10
2022-11-26T14:02:57.638Z,6.20
2022-11-26T14:06:07.967Z,6.10
2022-11-26T14:08:38.505Z,6.20
2022-11-26T14:11:07.304Z,6.20
2022-11-26T14:13:35.681Z,6.20
2022-11-26T14:16:09.046Z,6.20
2022-11-26T14:19:00.744Z,6.10
2022-11-26T14:21:33.150Z,6.10
2022-11-26T14:24:02.443Z,6.20
2022-11-26T14:26:37.634Z,6.10
2022-11-26T14:29:13.208Z,6.10
2022-11-26T14:31:49.527Z,6.10
2022-11-26T14:34:24.519Z,6.10
2022-11-26T14:36:55.118Z,6.10
2022-11-26T14:39:23.455Z,6.10
2022-11-26T14:41:57.895Z,6.10
2022-11-26T14:44:30.219Z,6.10
2022-11-26T14:47:02.015Z,6.10
2022-11-26T14:49:36.220Z,6.10
2022-11-26T14:52:06.815Z,6.10
2022-11-26T14:54:40.215Z,6.10
2022-11-26T14:57:13.446Z,6.10
2022-11-26T14:59:56.702Z,6.10
2022-11-26T15:02:26.863Z,6.10
2022-11-26T15:05:02.398Z,6.10
2022-11-26T15:07:31.417Z,6.10
2022-11-26T15:10:04.910Z,6.10
2022-11-26T15:12:34.512Z,6.10
2022-11-26T15:15:04.205Z,6.10
2022-11-26T15:17:36.070Z,6.10
2022-11-26T15:20:08.992Z,6.10
2022-11-26T15:22:39.115Z,6.10
2022-11-26T15:25:17.627Z,6.10
2022-11-26T15:27:54.256Z,6.10
2022-11-26T15:30:24.685Z,6.10
2022-11-26T15:32:58.980Z,6.10
2022-11-26T15:35:29.284Z,6.10
2022-11-26T15:37:57.589Z,6.10
2022-11-26T15:40:32.590Z,6.10
2022-11-26T15:43:04.217Z,6.10
2022-11-26T15:45:38.275Z,6.10
2022-11-26T15:48:07.837Z,6.10
2022-11-26T15:50:39.518Z,6.10
2022-11-26T15:53:15.917Z,6.10
2022-11-26T15:55:47.639Z,6.10
2022-11-26T15:58:21.774Z,6.10
2022-11-26T16:00:53.316Z,6.10
2022-11-26T16:03:43.304Z,6.10
2022-11-26T16:06:32.218Z,6.10
2022-11-26T16:09:03.637Z,6.10
2022-11-26T16:11:36.570Z,6.10
2022-11-26T16:14:25.063Z,6.10
2022-11-26T16:16:53.820Z,6.10
2022-11-26T16:19:22.993Z,6.10
2022-11-26T16:21:53.922Z,6.10
2022-11-26T16:24:30.680Z,6.10
2022-11-26T16:27:00.840Z,6.10
2022-11-26T16:29:30.588Z,6.10
2022-11-26T16:31:58.894Z,6.00
2022-11-26T16:34:27.875Z,6.00
2022-11-26T16:37:03.135Z,6.10
2022-11-26T16:39:37.460Z,6.10
2022-11-26T16:42:14.973Z,6.10
2022-11-26T16:44:43.021Z,6.10
2022-11-26T16:47:15.888Z,6.00
2022-11-26T16:49:43.993Z,6.00
2022-11-26T16:52:17.643Z,6.00
2022-11-26T16:54:45.715Z,6.00
2022-11-26T16:57:16.523Z,6.00
2022-11-26T16:59:45.371Z,6.00
2022-11-26T17:02:17.700Z,6.00
2022-11-26T17:04:46.336Z,6.00
2022-11-26T17:07:19.750Z,6.00
2022-11-26T17:09:54.352Z,6.00
2022-11-26T17:12:25.259Z,6.00
2022-11-26T17:14:59.811Z,6.00
2022-11-26T17:17:33.489Z,6.00
2022-11-26T17:20:01.589Z,6.00
2022-11-26T17:22:32.936Z,6.00
2022-11-26T17:25:04.009Z,6.00
2022-11-26T17:27:32.000Z,6.00
2022-11-26T17:30:00.069Z,6.00
2022-11-26T17:32:28.082Z,6.00
2022-11-26T17:34:56.080Z,5.90
2022-11-26T17:37:27.422Z,5.90
2022-11-26T17:40:00.199Z,5.90
2022-11-26T17:42:32.161Z,5.90
2022-11-26T17:45:03.079Z,5.90
2022-11-26T17:47:32.564Z,5.90
2022-11-26T17:50:00.718Z,5.90
2022-11-26T17:52:28.779Z,5.90
2022-11-26T17:54:58.176Z,5.90
2022-11-26T17:57:28.214Z,5.90
2022-11-26T17:59:58.791Z,5.90
2022-11-26T18:02:26.891Z,5.90
2022-11-26T18:04:54.946Z,5.90
2022-11-26T18:07:22.981Z,5.80
2022-11-26T18:09:54.526Z,5.80
2022-11-26T18:12:26.056Z,5.80
2022-11-26T18:14:54.993Z,5.80
2022-11-26T18:17:23.173Z,5.80
2022-11-26T18:19:51.445Z,5.80
2022-11-26T18:22:21.704Z,5.80
2022-11-26T18:24:56.433Z,5.70
2022-11-26T18:27:29.123Z,5.70
2022-11-26T18:29:57.642Z,5.70
2022-11-26T18:32:25.707Z,5.70
2022-11-26T18:34:54.172Z,5.70
2022-11-26T18:37:22.257Z,5.70
2022-11-26T18:39:50.386Z,5.70
2022-11-26T18:45:10.735Z,5.70
2022-11-26T18:47:38.917Z,5.70
2022-11-26T18:50:08.441Z,5.60
2022-11-26T18:52:36.545Z,5.60
2022-11-26T18:55:08.066Z,5.60
2022-11-26T18:57:39.226Z,5.60
2022-11-26T19:00:12.210Z,5.60
2022-11-26T19:02:40.312Z,5.60
2022-11-26T19:05:11.616Z,5.50
2022-11-26T19:07:40.222Z,5.50
2022-11-26T19:10:09.348Z,5.50
2022-11-26T19:12:37.378Z,5.50
2022-11-26T19:15:06.383Z,5.50
2022-11-26T19:17:35.969Z,5.50
2022-11-26T19:20:04.034Z,5.50
2022-11-26T19:22:32.025Z,5.40
2022-11-26T19:25:00.005Z,5.40
2022-11-26T19:27:28.008Z,5.40
2022-11-26T19:29:56.228Z,5.40
2022-11-26T19:32:24.796Z,5.40
2022-11-26T19:34:55.092Z,5.40
2022-11-26T19:37:23.107Z,5.40
2022-11-26T19:39:51.467Z,5.40
2022-11-26T19:42:19.477Z,5.40
2022-11-26T19:44:47.592Z,5.40
2022-11-26T19:47:15.887Z,5.40
2022-11-26T19:49:43.893Z,5.40
2022-11-26T19:52:13.301Z,5.40
2022-11-26T19:54:41.334Z,5.30
2022-11-26T19:57:09.338Z,5.30
2022-11-26T19:59:37.514Z,5.30
2022-11-26T20:02:05.651Z,5.30
2022-11-26T20:04:33.641Z,5.30
2022-11-26T20:07:01.678Z,5.20
2022-11-26T20:09:31.092Z,5.20
2022-11-26T20:12:01.893Z,5.20
2022-11-26T20:14:32.527Z,5.20
2022-11-26T20:17:01.256Z,5.20
2022-11-26T20:19:29.616Z,5.20
2022-11-26T20:21:57.631Z,5.10
2022-11-26T20:24:25.812Z,5.10
2022-11-26T20:26:55.321Z,5.10
2022-11-26T20:29:23.814Z,5.10
2022-11-26T20:31:53.054Z,5.10
2022-11-26T20:34:23.315Z,5.10
2022-11-26T20:36:53.287Z,5.10
2022-11-26T20:39:25.487Z,5.10
2022-11-26T20:41:54.891Z,5.10
2022-11-26T20:44:24.623Z,5.00
2022-11-26T20:46:57.023Z,5.00
2022-11-26T20:49:28.417Z,5.00
2022-11-26T20:52:01.548Z,5.00
2022-11-26T20:54:32.116Z,5.00
2022-11-26T20:57:02.148Z,5.00
2022-11-26T20:59:45.000Z,5.00
2022-11-26T21:02:13.398Z,5.00
2022-11-26T21:04:41.465Z,5.00
2022-11-26T21:07:10.826Z,5.00
2022-11-26T21:09:39.111Z,5.00
2022-11-26T21:12:10.977Z,5.00
2022-11-26T21:14:40.860Z,5.00
2022-11-26T21:17:09.465Z,5.00
2022-11-26T21:19:40.287Z,4.90
2022-11-26T21:22:13.167Z,4.90
2022-11-26T21:24:41.218Z,4.90
2022-11-26T21:27:10.631Z,4.90
2022-11-26T21:29:38.852Z,4.90
2022-11-26T21:32:07.433Z,4.90
2022-11-26T21:34:35.460Z,4.90
2022-11-26T21:37:05.786Z,4.90
2022-11-26T21:39:34.063Z,4.90
2022-11-26T21:42:05.676Z,4.90
2022-11-26T21:44:35.100Z,4.90
2022-11-26T21:47:03.792Z,4.80
2022-11-26T21:49:34.764Z,4.80
2022-11-26T21:52:03.015Z,4.80
2022-11-26T21:54:36.439Z,4.80
2022-11-26T21:57:04.720Z,4.80
2022-11-26T21:59:34.306Z,4.80
2022-11-26T22:02:03.936Z,4.70
2022-11-26T22:04:34.304Z,4.70
2022-11-26T22:07:02.467Z,4.80
2022-11-26T22:09:30.578Z,4.70
2022-11-26T22:11:58.951Z,4.70
2022-11-26T22:14:27.058Z,4.70
2022-11-26T22:16:57.093Z,4.70
2022-11-26T22:19:25.297Z,4.70
2022-11-26T22:21:53.366Z,4.70
2022-11-26T22:24:21.493Z,4.70
2022-11-26T22:26:51.578Z,4.70
2022-11-26T22:29:20.692Z,4.70
2022-11-26T22:31:50.309Z,4.60
2022-11-26T22:34:21.976Z,4.60
2022-11-26T22:36:50.268Z,4.60
2022-11-26T22:39:20.065Z,4.60
2022-11-26T22:41:49.191Z,4.60
2022-11-26T22:44:18.344Z,4.60
2022-11-26T22:46:47.071Z,4.60
2022-11-26T22:49:17.788Z,4.60
2022-11-26T22:51:48.009Z,4.60
2022-11-26T22:54:17.961Z,4.60
2022-11-26T22:56:46.084Z,4.50
2022-11-26T22:59:15.309Z,4.60
2022-11-26T23:01:43.498Z,4.50
2022-11-26T23:04:12.211Z,4.50
2022-11-26T23:06:40.395Z,4.50
2022-11-26T23:09:10.933Z,4.50
2022-11-26T23:11:40.830Z,4.50
2022-11-26T23:14:12.147Z,4.40
2022-11-26T23:16:42.259Z,4.40
2022-11-26T23:19:12.051Z,4.40
2022-11-26T23:21:42.676Z,4.40
2022-11-26T23:24:12.497Z,4.40
2022-11-26T23:26:41.364Z,4.40
2022-11-26T23:29:10.028Z,4.40
2022-11-26T23:31:40.635Z,4.40
2022-11-26T23:34:10.108Z,4.40
2022-11-26T23:36:38.454Z,4.40
2022-11-26T23:39:08.371Z,4.40
2022-11-26T23:41:38.148Z,4.40
2022-11-26T23:44:06.407Z,4.40
2022-11-26T23:46:35.795Z,4.40
2022-11-26T23:49:04.644Z,4.40
2022-11-26T23:51:33.963Z,4.30
2022-11-26T23:54:02.208Z,4.30
2022-11-26T23:56:32.807Z,4.30
2022-11-26T23:59:03.830Z,4.30
